createdAt,value
2018-04-27T00:00:31.451Z,5.28
2018-04-27T00:01:39.516Z,5.25
2018-04-27T00:02:47.582Z,5.25
2018-04-27T00:03:55.628Z,5.26
2018-04-27T00:05:03.787Z,5.20
2018-04-27T00:06:11.749Z,5.28
2018-04-27T00:07:19.801Z,5.37
2018-04-27T00:08:27.860Z,5.31
2018-04-27T00:09:35.915Z,5.46
2018-04-27T00:10:43.981Z,5.33
2018-04-27T00:11:52.037Z,5.51
2018-04-27T00:13:00.092Z,5.51
2018-04-27T00:14:08.128Z,5.58
2018-04-27T00:15:16.199Z,5.72
2018-04-27T00:16:24.268Z,5.76
2018-04-27T00:17:32.319Z,5.76
2018-04-27T00:18:40.392Z,5.80
2018-04-27T00:19:48.458Z,5.97
2018-04-27T00:20:56.488Z,6.02
2018-04-27T00:22:04.551Z,6.09
2018-04-27T00:23:12.615Z,6.15
2018-04-27T00:24:20.682Z,6.05
2018-04-27T00:25:29.540Z,6.19
2018-04-27T00:26:36.791Z,6.22
2018-04-27T00:27:44.823Z,6.19
2018-04-27T00:28:52.912Z,6.31
2018-04-27T00:30:00.958Z,6.31
2018-04-27T00:31:09.025Z,6.34
2018-04-27T00:32:17.083Z,6.39
2018-04-27T00:33:25.114Z,6.46
2018-04-27T00:34:33.194Z,6.46
2018-04-27T00:35:41.265Z,6.50
2018-04-27T00:36:49.328Z,6.50
2018-04-27T00:37:57.374Z,6.65
2018-04-27T00:39:05.418Z,6.64
2018-04-27T00:40:13.495Z,6.65
2018-04-27T00:41:21.549Z,6.72
2018-04-27T00:42:29.599Z,6.65
2018-04-27T00:43:37.673Z,6.70
2018-04-27T00:44:45.729Z,6.59
2018-04-27T00:45:53.772Z,6.74
2018-04-27T00:47:01.833Z,6.68
2018-04-27T00:48:09.891Z,6.59
2018-04-27T00:49:17.962Z,6.74
2018-04-27T00:50:26.025Z,6.74
2018-04-27T00:51:34.067Z,6.64
2018-04-27T00:52:42.129Z,6.72
2018-04-27T00:53:50.201Z,6.59
2018-04-27T00:54:58.261Z,6.71
2018-04-27T00:56:06.321Z,6.59
2018-04-27T00:57:14.362Z,6.62
2018-04-27T00:58:22.416Z,6.60
2018-04-27T00:59:30.541Z,6.64
2018-04-27T01:00:38.559Z,6.67
2018-04-27T01:01:46.613Z,6.67
2018-04-27T01:02:54.655Z,6.62
2018-04-27T01:04:02.735Z,6.60
2018-04-27T01:05:10.823Z,6.59
2018-04-27T01:06:18.844Z,6.64
2018-04-27T01:07:26.896Z,6.64
2018-04-27T01:08:34.941Z,6.65
2018-04-27T01:09:43.018Z,6.65
2018-04-27T01:10:51.081Z,6.68
2018-04-27T01:11:59.139Z,6.68
2018-04-27T01:13:07.204Z,6.70
2018-04-27T01:14:15.230Z,6.70
2018-04-27T01:15:23.311Z,6.67
2018-04-27T01:16:31.372Z,6.75
2018-04-27T01:17:39.425Z,6.67
2018-04-27T01:18:47.476Z,6.64
2018-04-27T01:19:55.532Z,6.60
2018-04-27T01:21:03.600Z,6.65
2018-04-27T01:22:11.664Z,6.50
2018-04-27T01:23:19.730Z,6.49
2018-04-27T01:24:27.784Z,6.60
2018-04-27T01:25:35.837Z,6.64
2018-04-27T01:26:43.901Z,6.64
2018-04-27T01:27:51.962Z,6.75
2018-04-27T01:29:00.016Z,6.62
2018-04-27T01:30:08.064Z,6.62
2018-04-27T01:31:16.201Z,6.70
2018-04-27T01:32:24.184Z,6.72
2018-04-27T01:33:32.242Z,6.86
2018-04-27T01:34:40.304Z,6.85
2018-04-27T01:35:48.357Z,6.82
2018-04-27T01:36:56.428Z,6.80
2018-04-27T01:38:04.469Z,6.70
2018-04-27T01:39:12.530Z,6.83
2018-04-27T01:40:20.633Z,6.72
2018-04-27T01:41:28.663Z,6.78
2018-04-27T01:42:36.703Z,6.71
2018-04-27T01:43:44.751Z,6.90
2018-04-27T01:44:52.828Z,6.92
2018-04-27T01:46:00.896Z,6.87
2018-04-27T01:47:08.936Z,6.83
2018-04-27T01:48:17.018Z,6.85
2018-04-27T01:49:25.048Z,6.95
2018-04-27T01:50:33.121Z,6.85
2018-04-27T01:51:41.181Z,6.86
2018-04-27T01:52:49.248Z,6.82
2018-04-27T01:53:57.300Z,6.80
2018-04-27T01:55:05.347Z,6.74
2018-04-27T01:56:13.431Z,6.74
2018-04-27T01:57:21.479Z,6.72
2018-04-27T01:58:29.531Z,6.67
2018-04-27T01:59:37.594Z,6.75
2018-04-27T02:00:45.648Z,6.70
2018-04-27T02:01:53.712Z,6.74
2018-04-27T02:03:01.773Z,6.71
2018-04-27T02:04:09.839Z,6.70
2018-04-27T02:05:17.896Z,6.78
2018-04-27T02:06:25.970Z,6.64
2018-04-27T02:07:34.012Z,6.68
2018-04-27T02:08:42.053Z,6.74
2018-04-27T02:09:50.126Z,6.71
2018-04-27T02:10:58.172Z,6.75
2018-04-27T02:12:06.233Z,6.70
2018-04-27T02:13:14.293Z,6.70
2018-04-27T02:14:22.353Z,6.71
2018-04-27T02:15:30.401Z,6.78
2018-04-27T02:16:38.475Z,6.82
2018-04-27T02:17:46.568Z,6.70
2018-04-27T02:18:54.580Z,6.72
2018-04-27T02:20:02.646Z,6.71
2018-04-27T02:21:10.716Z,6.70
2018-04-27T02:22:18.773Z,6.74
2018-04-27T02:23:26.825Z,6.75
2018-04-27T02:24:34.865Z,6.72
2018-04-27T02:25:42.934Z,6.89
2018-04-27T02:26:51.002Z,6.86
2018-04-27T02:27:59.063Z,6.80
2018-04-27T02:29:07.126Z,6.92
2018-04-27T02:30:15.150Z,6.92
2018-04-27T02:31:23.244Z,6.93
2018-04-27T02:32:31.296Z,6.92
2018-04-27T02:33:39.347Z,6.89
2018-04-27T02:34:47.421Z,6.96
2018-04-27T02:35:55.453Z,6.93
2018-04-27T02:37:03.532Z,7.00
2018-04-27T02:38:11.593Z,6.89
2018-04-27T02:39:19.647Z,7.05
2018-04-27T02:40:27.695Z,7.04
2018-04-27T02:41:35.749Z,7.03
2018-04-27T02:42:43.805Z,7.00
2018-04-27T02:43:51.875Z,6.97
2018-04-27T02:44:59.948Z,6.89
2018-04-27T02:46:07.991Z,6.87
2018-04-27T02:47:16.052Z,6.95
2018-04-27T02:48:24.141Z,6.90
2018-04-27T02:49:32.167Z,6.93
2018-04-27T02:50:40.231Z,6.86
2018-04-27T02:51:48.274Z,6.74
2018-04-27T02:52:56.348Z,6.72
2018-04-27T02:54:04.408Z,6.72
2018-04-27T02:55:12.463Z,6.70
2018-04-27T02:56:20.527Z,6.68
2018-04-27T02:57:28.577Z,6.70
2018-04-27T02:58:36.633Z,6.72
2018-04-27T02:59:44.718Z,6.70
2018-04-27T03:00:52.752Z,6.60
2018-04-27T03:02:00.807Z,6.62
2018-04-27T03:03:08.876Z,6.59
2018-04-27T03:04:16.925Z,6.68
2018-04-27T03:05:25.039Z,6.65
2018-04-27T03:06:33.057Z,6.67
2018-04-27T03:07:41.110Z,6.56
2018-04-27T03:08:49.167Z,6.49
2018-04-27T03:09:57.224Z,6.56
2018-04-27T03:11:05.272Z,6.49
2018-04-27T03:12:13.323Z,6.44
2018-04-27T03:13:21.394Z,6.50
2018-04-27T03:14:29.440Z,6.46
2018-04-27T03:15:37.501Z,6.47
2018-04-27T03:16:45.568Z,6.49
2018-04-27T03:17:53.626Z,6.46
2018-04-27T03:19:01.676Z,6.49
2018-04-27T03:20:09.734Z,6.46
2018-04-27T03:21:17.794Z,6.38
2018-04-27T03:22:25.856Z,6.39
2018-04-27T03:23:33.921Z,6.32
2018-04-27T03:24:41.973Z,6.32
2018-04-27T03:25:50.030Z,6.36
2018-04-27T03:26:58.069Z,6.20
2018-04-27T03:28:06.156Z,6.22
2018-04-27T03:29:14.226Z,6.19
2018-04-27T03:30:22.264Z,6.06
2018-04-27T03:31:30.322Z,6.01
2018-04-27T03:32:38.377Z,6.09
2018-04-27T03:33:46.435Z,6.01
2018-04-27T03:34:54.501Z,6.02
2018-04-27T03:36:02.561Z,6.05
2018-04-27T03:37:10.615Z,6.01
2018-04-27T03:38:18.701Z,6.09
2018-04-27T03:39:26.735Z,6.12
2018-04-27T03:40:34.774Z,6.06
2018-04-27T03:41:42.855Z,6.06
2018-04-27T03:42:50.906Z,6.16
2018-04-27T03:43:58.962Z,6.12
2018-04-27T03:45:07.039Z,6.15
2018-04-27T03:46:15.052Z,6.13
2018-04-27T03:47:23.140Z,6.12
2018-04-27T03:48:31.188Z,6.01
2018-04-27T03:49:39.258Z,6.07
2018-04-27T03:50:47.317Z,6.15
2018-04-27T03:51:55.351Z,6.09
2018-04-27T03:53:03.421Z,5.99
2018-04-27T03:54:12.030Z,6.17
2018-04-27T03:55:19.541Z,5.99
2018-04-27T03:56:27.602Z,6.10
2018-04-27T03:57:35.646Z,6.09
2018-04-27T03:58:43.729Z,6.19
2018-04-27T03:59:51.776Z,6.09
2018-04-27T04:00:59.838Z,6.13
2018-04-27T04:02:07.886Z,6.09
2018-04-27T04:03:15.958Z,6.06
2018-04-27T04:04:24.011Z,6.01
2018-04-27T04:05:32.065Z,6.10
2018-04-27T04:06:40.122Z,6.02
2018-04-27T04:07:48.191Z,6.05
2018-04-27T04:08:56.243Z,6.05
2018-04-27T04:10:04.295Z,6.10
2018-04-27T04:11:12.363Z,6.20
2018-04-27T04:12:20.406Z,6.20
2018-04-27T04:13:28.477Z,6.26
2018-04-27T04:14:36.538Z,6.22
2018-04-27T04:15:44.577Z,6.26
2018-04-27T04:16:52.637Z,6.25
2018-04-27T04:18:00.703Z,6.22
2018-04-27T04:19:08.760Z,6.20
2018-04-27T04:20:16.831Z,6.22
2018-04-27T04:21:24.863Z,6.32
2018-04-27T04:22:32.930Z,6.26
2018-04-27T04:23:41.022Z,6.32
2018-04-27T04:24:49.063Z,6.25
2018-04-27T04:25:57.109Z,6.29
2018-04-27T04:27:05.317Z,6.19
2018-04-27T04:28:13.223Z,6.28
2018-04-27T04:29:21.369Z,6.26
2018-04-27T04:30:29.338Z,6.25
2018-04-27T04:31:37.604Z,6.26
2018-04-27T04:32:45.444Z,6.31
2018-04-27T04:33:53.520Z,6.17
2018-04-27T04:35:01.567Z,6.15
2018-04-27T04:36:09.633Z,6.12
2018-04-27T04:37:17.705Z,6.05
2018-04-27T04:38:25.797Z,6.10
2018-04-27T04:39:33.808Z,6.10
2018-04-27T04:40:42.131Z,6.17
2018-04-27T04:41:49.914Z,6.10
2018-04-27T04:42:57.973Z,6.07
2018-04-27T04:44:06.030Z,6.01
2018-04-27T04:45:14.097Z,6.10
2018-04-27T04:46:22.160Z,6.02
2018-04-27T04:47:30.215Z,6.15
2018-04-27T04:48:38.264Z,6.05
2018-04-27T04:49:46.327Z,6.06
2018-04-27T04:50:54.383Z,6.10
2018-04-27T04:52:02.444Z,6.19
2018-04-27T04:53:11.584Z,6.19
2018-04-27T04:54:18.556Z,6.15
2018-04-27T04:55:26.604Z,6.19
2018-04-27T04:56:34.670Z,6.22
2018-04-27T04:57:42.729Z,6.25
2018-04-27T04:58:50.794Z,6.34
2018-04-27T04:59:58.835Z,6.49
2018-04-27T05:01:07.546Z,6.49
2018-04-27T05:02:15.568Z,6.46
2018-04-27T05:03:23.683Z,6.43
2018-04-27T05:04:31.620Z,6.44
2018-04-27T05:05:39.317Z,6.49
2018-04-27T05:06:47.882Z,6.46
2018-04-27T05:07:55.770Z,6.46
2018-04-27T05:09:03.993Z,6.49
2018-04-27T05:10:11.997Z,6.46
2018-04-27T05:11:20.025Z,6.52
2018-04-27T05:12:27.476Z,6.54
2018-04-27T05:13:35.603Z,6.47
2018-04-27T05:14:43.608Z,6.57
2018-04-27T05:15:51.664Z,6.59
2018-04-27T05:16:59.727Z,6.65
2018-04-27T05:18:07.776Z,6.60
2018-04-27T05:19:15.837Z,6.57
2018-04-27T05:20:23.897Z,6.64
2018-04-27T05:21:31.956Z,6.67
2018-04-27T05:22:40.014Z,6.64
2018-04-27T05:23:48.073Z,6.83
2018-04-27T05:24:56.143Z,6.85
2018-04-27T05:26:04.178Z,6.83
2018-04-27T05:27:12.232Z,6.93
2018-04-27T05:28:20.300Z,6.93
2018-04-27T05:29:28.357Z,6.97
2018-04-27T05:30:36.429Z,7.00
2018-04-27T05:31:44.476Z,7.03
2018-04-27T05:32:52.535Z,7.03
2018-04-27T05:34:00.605Z,7.11
2018-04-27T05:35:08.644Z,7.11
2018-04-27T05:36:16.742Z,7.21
2018-04-27T05:37:24.735Z,7.18
2018-04-27T05:38:32.831Z,7.23
2018-04-27T05:39:40.883Z,7.26
2018-04-27T05:40:48.951Z,7.23
2018-04-27T05:41:57.004Z,7.23
2018-04-27T05:43:05.031Z,7.39
2018-04-27T05:44:13.117Z,7.33
2018-04-27T05:45:21.186Z,7.44
2018-04-27T05:46:29.244Z,7.48
2018-04-27T05:47:37.304Z,7.51
2018-04-27T05:48:45.325Z,7.59
2018-04-27T05:49:53.407Z,7.58
2018-04-27T05:51:01.466Z,7.61
2018-04-27T05:52:09.523Z,7.70
2018-04-27T05:53:17.589Z,7.74
2018-04-27T05:54:25.639Z,7.70
2018-04-27T05:55:33.714Z,7.78
2018-04-27T05:56:41.764Z,7.83
2018-04-27T05:57:49.822Z,7.83
2018-04-27T05:58:57.885Z,7.87
2018-04-27T06:00:05.958Z,7.88
2018-04-27T06:01:14.006Z,7.96
2018-04-27T06:02:22.054Z,8.06
2018-04-27T06:03:30.114Z,8.23
2018-04-27T06:04:38.182Z,8.42
2018-04-27T06:05:46.232Z,8.64
2018-04-27T06:06:54.308Z,8.61
2018-04-27T06:08:02.362Z,8.74
2018-04-27T06:09:10.416Z,8.79
2018-04-27T06:10:18.482Z,8.78
2018-04-27T06:11:26.532Z,8.86
2018-04-27T06:12:34.579Z,9.08
2018-04-27T06:13:42.685Z,8.79
2018-04-27T06:14:50.732Z,8.95
2018-04-27T06:15:58.765Z,8.79
2018-04-27T06:17:06.845Z,8.79
2018-04-27T06:18:14.862Z,8.77
2018-04-27T06:19:22.952Z,8.93
2018-04-27T06:20:31.009Z,8.95
2018-04-27T06:21:39.082Z,9.00
2018-04-27T06:22:47.146Z,8.93
2018-04-27T06:23:55.174Z,9.00
2018-04-27T06:25:03.261Z,8.95
2018-04-27T06:26:11.319Z,9.03
2018-04-27T06:27:19.384Z,8.99
2018-04-27T06:28:27.437Z,9.05
2018-04-27T06:29:35.481Z,9.15
2018-04-27T06:30:43.593Z,9.24
2018-04-27T06:31:51.693Z,9.36
2018-04-27T06:32:59.707Z,9.40
2018-04-27T06:34:07.737Z,9.47
2018-04-27T06:35:15.810Z,9.51
2018-04-27T06:36:23.867Z,9.55
2018-04-27T06:37:31.955Z,9.66
2018-04-27T06:38:39.984Z,9.67
2018-04-27T06:39:48.034Z,9.74
2018-04-27T06:40:56.116Z,9.87
2018-04-27T06:42:04.155Z,9.85
2018-04-27T06:43:12.233Z,9.85
2018-04-27T06:44:20.289Z,9.90
2018-04-27T06:45:28.349Z,9.87
2018-04-27T06:46:36.416Z,9.91
2018-04-27T06:47:44.467Z,9.99
2018-04-27T06:48:52.532Z,10.06
2018-04-27T06:50:00.597Z,10.13
2018-04-27T06:51:08.665Z,10.18
2018-04-27T06:52:16.722Z,10.27
2018-04-27T06:53:24.757Z,10.25
2018-04-27T06:54:32.842Z,10.25
2018-04-27T06:55:40.904Z,10.39
2018-04-27T06:56:48.958Z,10.39
2018-04-27T06:57:57.010Z,10.43
2018-04-27T06:59:05.133Z,10.45
2018-04-27T07:00:13.138Z,10.43
2018-04-27T07:01:21.213Z,10.46
2018-04-27T07:02:29.262Z,10.67
2018-04-27T07:03:37.324Z,10.80
2018-04-27T07:04:45.385Z,10.86
2018-04-27T07:05:53.456Z,10.90
2018-04-27T07:07:01.513Z,10.82
2018-04-27T07:08:09.555Z,10.79
2018-04-27T07:09:17.671Z,10.75
2018-04-27T07:10:25.701Z,10.72
2018-04-27T07:11:33.782Z,10.80
2018-04-27T07:12:41.831Z,10.82
2018-04-27T07:13:49.885Z,10.94
2018-04-27T07:14:57.949Z,11.01
2018-04-27T07:16:06.008Z,11.26
2018-04-27T07:17:14.067Z,11.53
2018-04-27T07:18:22.120Z,11.86
2018-04-27T07:19:30.194Z,12.14
2018-04-27T07:20:38.256Z,12.35
2018-04-27T07:21:46.322Z,12.30
2018-04-27T07:22:54.381Z,12.62
2018-04-27T07:24:02.446Z,12.84
2018-04-27T07:25:10.509Z,12.83
2018-04-27T07:26:18.572Z,13.01
2018-04-27T07:27:26.633Z,13.28
2018-04-27T07:28:34.702Z,13.16
2018-04-27T07:29:42.769Z,13.01
2018-04-27T07:30:50.823Z,13.24
2018-04-27T07:31:58.901Z,13.40
2018-04-27T07:33:06.957Z,13.40
2018-04-27T07:34:15.100Z,13.31
2018-04-27T07:35:23.096Z,13.19
2018-04-27T07:36:31.157Z,13.13
2018-04-27T07:37:39.217Z,13.11
2018-04-27T07:38:47.287Z,12.99
2018-04-27T07:39:55.334Z,12.73
2018-04-27T07:41:03.425Z,12.57
2018-04-27T07:42:11.477Z,12.87
2018-04-27T07:43:19.539Z,13.11
2018-04-27T07:44:27.612Z,13.12
2018-04-27T07:45:35.673Z,12.86
2018-04-27T07:46:43.735Z,13.06
2018-04-27T07:47:51.803Z,13.54
2018-04-27T07:48:59.872Z,13.70
2018-04-27T07:50:07.947Z,14.34
2018-04-27T07:51:16.001Z,14.87
2018-04-27T07:52:24.075Z,15.22
2018-04-27T07:53:32.135Z,14.73
2018-04-27T07:54:40.199Z,15.37
2018-04-27T07:55:48.277Z,15.80
2018-04-27T07:56:56.323Z,15.98
2018-04-27T07:58:04.393Z,16.31
2018-04-27T07:59:12.470Z,16.49
2018-04-27T08:00:20.545Z,16.82
2018-04-27T08:01:28.595Z,16.94
2018-04-27T08:02:36.674Z,17.23
2018-04-27T08:03:44.725Z,17.44
2018-04-27T08:04:52.808Z,17.38
2018-04-27T08:06:00.896Z,17.27
2018-04-27T08:07:09.064Z,17.39
2018-04-27T08:08:17.029Z,17.69
2018-04-27T08:09:25.084Z,17.54
2018-04-27T08:10:33.178Z,17.94
2018-04-27T08:11:41.245Z,18.19
2018-04-27T08:12:49.325Z,18.45
2018-04-27T08:13:57.393Z,18.67
2018-04-27T08:15:05.452Z,18.52
2018-04-27T08:16:13.545Z,18.68
2018-04-27T08:17:21.628Z,18.83
2018-04-27T08:18:29.684Z,18.73
2018-04-27T08:19:37.766Z,18.81
2018-04-27T08:20:45.851Z,18.82
2018-04-27T08:21:53.913Z,19.00
2018-04-27T08:23:01.984Z,18.88
2018-04-27T08:24:10.073Z,19.22
2018-04-27T08:25:18.161Z,19.47
2018-04-27T08:26:26.206Z,18.79
2018-04-27T08:27:34.294Z,18.82
2018-04-27T08:28:42.390Z,18.73
2018-04-27T08:29:50.443Z,18.60
2018-04-27T08:30:58.509Z,18.31
2018-04-27T08:32:06.637Z,17.57
2018-04-27T08:33:14.659Z,17.54
2018-04-27T08:34:22.747Z,17.46
2018-04-27T08:35:30.827Z,17.71
2018-04-27T08:36:38.902Z,18.02
2018-04-27T08:37:46.969Z,18.24
2018-04-27T08:38:55.032Z,18.52
2018-04-27T08:40:03.126Z,18.74
2018-04-27T08:41:11.201Z,18.81
2018-04-27T08:42:19.274Z,18.46
2018-04-27T08:43:27.352Z,18.52
2018-04-27T08:44:35.408Z,18.48
2018-04-27T08:45:43.540Z,18.51
2018-04-27T08:46:51.577Z,18.67
2018-04-27T08:47:59.669Z,18.94
2018-04-27T08:49:07.739Z,19.12
2018-04-27T08:50:15.814Z,19.00
2018-04-27T08:51:23.889Z,19.15
2018-04-27T08:52:31.963Z,19.37
2018-04-27T08:53:40.030Z,19.00
2018-04-27T08:54:48.129Z,18.97
2018-04-27T08:55:56.196Z,19.24
2018-04-27T08:57:04.269Z,18.81
2018-04-27T08:58:12.339Z,18.73
2018-04-27T08:59:20.427Z,18.63
2018-04-27T09:00:28.495Z,18.46
2018-04-27T09:01:36.584Z,18.43
2018-04-27T09:02:44.708Z,17.69
2018-04-27T09:03:52.727Z,17.54
2018-04-27T09:05:00.778Z,17.46
2018-04-27T09:06:08.878Z,17.28
2018-04-27T09:07:16.945Z,17.28
2018-04-27T09:08:25.004Z,17.34
2018-04-27T09:09:33.093Z,17.41
2018-04-27T09:10:41.161Z,17.32
2018-04-27T09:11:49.225Z,17.37
2018-04-27T09:12:57.299Z,17.05
2018-04-27T09:14:05.349Z,16.69
2018-04-27T09:15:13.443Z,16.72
2018-04-27T09:16:21.606Z,16.62
2018-04-27T09:17:29.582Z,16.59
2018-04-27T09:18:37.655Z,16.41
2018-04-27T09:19:45.723Z,16.28
2018-04-27T09:20:53.786Z,16.29
2018-04-27T09:22:01.879Z,16.40
2018-04-27T09:23:09.961Z,16.32
2018-04-27T09:24:17.997Z,16.12
2018-04-27T09:25:26.109Z,15.92
2018-04-27T09:26:34.147Z,16.08
2018-04-27T09:27:42.205Z,16.13
2018-04-27T09:28:50.256Z,16.18
2018-04-27T09:29:58.335Z,16.40
2018-04-27T09:31:06.416Z,16.39
2018-04-27T09:32:14.514Z,16.65
2018-04-27T09:33:22.552Z,16.86
2018-04-27T09:34:30.615Z,16.83
2018-04-27T09:35:38.676Z,16.94
2018-04-27T09:36:46.742Z,16.65
2018-04-27T09:37:54.796Z,16.76
2018-04-27T09:39:02.895Z,16.89
2018-04-27T09:40:10.959Z,17.12
2018-04-27T09:41:19.012Z,17.24
2018-04-27T09:42:27.073Z,17.38
2018-04-27T09:43:35.134Z,17.30
2018-04-27T09:44:43.220Z,17.41
2018-04-27T09:45:51.292Z,17.52
2018-04-27T09:46:59.364Z,17.56
2018-04-27T09:48:07.416Z,17.75
2018-04-27T09:49:15.484Z,17.91
2018-04-27T09:50:23.563Z,18.05
2018-04-27T09:51:31.618Z,18.15
2018-04-27T09:52:39.681Z,18.00
2018-04-27T09:53:47.765Z,18.03
2018-04-27T09:54:55.825Z,17.97
2018-04-27T09:56:03.893Z,17.98
2018-04-27T09:57:11.960Z,17.97
2018-04-27T09:58:20.026Z,18.08
2018-04-27T09:59:28.102Z,18.08
2018-04-27T10:00:36.151Z,18.06
2018-04-27T10:01:44.221Z,17.98
2018-04-27T10:02:52.315Z,17.98
2018-04-27T10:04:00.357Z,17.97
2018-04-27T10:05:08.422Z,17.79
2018-04-27T10:06:16.484Z,17.63
2018-04-27T10:07:24.556Z,17.54
2018-04-27T10:08:32.615Z,17.72
2018-04-27T10:09:40.696Z,17.79
2018-04-27T10:10:48.824Z,18.03
2018-04-27T10:11:56.875Z,18.06
2018-04-27T10:13:04.857Z,18.05
2018-04-27T10:14:12.954Z,18.03
2018-04-27T10:15:21.012Z,18.12
2018-04-27T10:16:29.086Z,18.12
2018-04-27T10:17:37.163Z,18.18
2018-04-27T10:18:45.211Z,17.98
2018-04-27T10:19:53.271Z,18.08
2018-04-27T10:21:01.364Z,18.08
2018-04-27T10:22:09.424Z,18.16
2018-04-27T10:23:17.477Z,18.33
2018-04-27T10:24:25.541Z,18.41
2018-04-27T10:25:33.622Z,18.48
2018-04-27T10:26:41.675Z,18.61
2018-04-27T10:27:49.748Z,18.74
2018-04-27T10:28:57.824Z,18.81
2018-04-27T10:30:05.897Z,18.67
2018-04-27T10:31:13.962Z,18.68
2018-04-27T10:32:22.025Z,18.53
2018-04-27T10:33:30.091Z,18.55
2018-04-27T10:34:38.164Z,18.64
2018-04-27T10:35:46.226Z,18.71
2018-04-27T10:36:54.288Z,18.79
2018-04-27T10:38:02.352Z,18.86
2018-04-27T10:39:10.424Z,19.00
2018-04-27T10:40:18.486Z,19.07
2018-04-27T10:41:26.544Z,19.12
2018-04-27T10:42:34.605Z,19.29
2018-04-27T10:43:42.697Z,19.44
2018-04-27T10:44:50.751Z,19.57
2018-04-27T10:45:58.820Z,19.42
2018-04-27T10:47:06.891Z,19.45
2018-04-27T10:48:14.934Z,19.52
2018-04-27T10:49:23.020Z,19.48
2018-04-27T10:50:31.086Z,19.41
2018-04-27T10:51:39.156Z,18.82
2018-04-27T10:52:47.232Z,18.73
2018-04-27T10:53:55.255Z,18.74
2018-04-27T10:55:03.359Z,18.68
2018-04-27T10:56:11.471Z,18.79
2018-04-27T10:57:19.502Z,18.79
2018-04-27T10:58:27.560Z,18.92
2018-04-27T10:59:35.611Z,19.15
2018-04-27T11:00:43.692Z,19.12
2018-04-27T11:01:51.778Z,19.23
2018-04-27T11:02:59.826Z,19.38
2018-04-27T11:04:07.894Z,19.47
2018-04-27T11:05:15.970Z,19.52
2018-04-27T11:06:24.030Z,19.57
2018-04-27T11:07:32.101Z,19.79
2018-04-27T11:08:40.154Z,19.79
2018-04-27T11:09:48.236Z,19.90
2018-04-27T11:10:56.345Z,20.02
2018-04-27T11:12:04.371Z,19.94
2018-04-27T11:13:12.439Z,20.12
2018-04-27T11:14:20.497Z,19.97
2018-04-27T11:15:28.572Z,20.17
2018-04-27T11:16:36.624Z,20.12
2018-04-27T11:17:44.699Z,20.17
2018-04-27T11:18:52.761Z,20.21
2018-04-27T11:20:00.835Z,20.21
2018-04-27T11:21:08.902Z,20.10
2018-04-27T11:22:16.978Z,20.18
2018-04-27T11:23:25.024Z,20.21
2018-04-27T11:24:33.098Z,20.26
2018-04-27T11:25:41.171Z,20.24
2018-04-27T11:26:49.240Z,20.15
2018-04-27T11:27:57.341Z,20.18
2018-04-27T11:29:05.367Z,20.22
2018-04-27T11:30:13.445Z,20.40
2018-04-27T11:31:21.515Z,20.42
2018-04-27T11:32:29.584Z,20.29
2018-04-27T11:33:37.674Z,20.34
2018-04-27T11:34:45.711Z,20.44
2018-04-27T11:35:53.789Z,20.49
2018-04-27T11:37:01.846Z,20.53
2018-04-27T11:38:09.924Z,20.46
2018-04-27T11:39:17.982Z,20.42
2018-04-27T11:40:26.046Z,20.46
2018-04-27T11:41:34.122Z,20.53
2018-04-27T11:42:42.193Z,20.49
2018-04-27T11:43:50.261Z,20.39
2018-04-27T11:44:58.321Z,20.29
2018-04-27T11:46:06.398Z,20.12
2018-04-27T11:47:14.462Z,20.18
2018-04-27T11:48:22.526Z,20.19
2018-04-27T11:49:30.599Z,20.17
2018-04-27T11:50:38.667Z,19.99
2018-04-27T11:51:46.735Z,20.00
2018-04-27T11:52:54.775Z,19.96
2018-04-27T11:54:02.860Z,19.99
2018-04-27T11:55:10.936Z,19.97
2018-04-27T11:56:19.000Z,19.94
2018-04-27T11:57:27.065Z,19.89
2018-04-27T11:58:35.129Z,19.92
2018-04-27T11:59:43.197Z,19.94
2018-04-27T12:00:51.314Z,20.19
2018-04-27T12:01:59.339Z,20.22
2018-04-27T12:03:07.410Z,20.46
2018-04-27T12:04:15.461Z,20.55
2018-04-27T12:05:23.574Z,20.56
2018-04-27T12:06:31.616Z,20.71
2018-04-27T12:07:39.687Z,20.67
2018-04-27T12:08:47.743Z,20.75
2018-04-27T12:09:55.903Z,20.80
2018-04-27T12:11:03.882Z,20.70
2018-04-27T12:12:11.947Z,20.74
2018-04-27T12:13:20.021Z,20.74
2018-04-27T12:14:28.082Z,20.71
2018-04-27T12:15:36.149Z,20.73
2018-04-27T12:16:44.218Z,20.67
2018-04-27T12:17:52.285Z,20.70
2018-04-27T12:19:00.381Z,20.67
2018-04-27T12:20:08.439Z,20.70
2018-04-27T12:21:16.490Z,20.78
2018-04-27T12:22:24.553Z,20.95
2018-04-27T12:23:32.669Z,20.89
2018-04-27T12:24:40.683Z,20.96
2018-04-27T12:25:48.764Z,20.88
2018-04-27T12:26:56.852Z,20.80
2018-04-27T12:28:04.917Z,20.78
2018-04-27T12:29:12.969Z,20.80
2018-04-27T12:30:21.048Z,20.75
2018-04-27T12:31:29.200Z,20.67
2018-04-27T12:32:37.170Z,20.71
2018-04-27T12:33:45.217Z,20.75
2018-04-27T12:34:53.300Z,20.73
2018-04-27T12:36:01.381Z,20.56
2018-04-27T12:37:09.435Z,20.42
2018-04-27T12:38:17.507Z,20.49
2018-04-27T12:39:25.568Z,20.56
2018-04-27T12:40:33.648Z,20.63
2018-04-27T12:41:41.734Z,20.68
2018-04-27T12:42:49.786Z,20.78
2018-04-27T12:43:57.861Z,20.83
2018-04-27T12:45:05.925Z,20.88
2018-04-27T12:46:13.989Z,21.05
2018-04-27T12:47:22.059Z,20.95
2018-04-27T12:48:30.124Z,20.92
2018-04-27T12:49:38.189Z,20.93
2018-04-27T12:50:46.252Z,20.96
2018-04-27T12:51:54.339Z,20.98
2018-04-27T12:53:02.394Z,21.03
2018-04-27T12:54:10.461Z,20.86
2018-04-27T12:55:18.542Z,20.82
2018-04-27T12:56:26.602Z,20.74
2018-04-27T12:57:34.652Z,20.80
2018-04-27T12:58:42.765Z,20.83
2018-04-27T12:59:50.805Z,20.86
2018-04-27T13:00:58.876Z,20.78
2018-04-27T13:02:06.934Z,20.86
2018-04-27T13:03:14.995Z,20.89
2018-04-27T13:04:23.073Z,21.00
2018-04-27T13:05:31.152Z,20.95
2018-04-27T13:06:39.221Z,21.05
2018-04-27T13:07:47.280Z,21.04
2018-04-27T13:08:55.311Z,21.10
2018-04-27T13:10:03.401Z,21.04
2018-04-27T13:11:11.483Z,21.08
2018-04-27T13:12:19.552Z,21.10
2018-04-27T13:13:27.693Z,21.15
2018-04-27T13:14:35.688Z,21.13
2018-04-27T13:15:43.745Z,21.10
2018-04-27T13:16:51.827Z,21.10
2018-04-27T13:17:59.896Z,21.03
2018-04-27T13:19:08.017Z,21.00
2018-04-27T13:20:16.027Z,21.10
2018-04-27T13:21:24.136Z,21.07
2018-04-27T13:22:32.160Z,21.20
2018-04-27T13:23:40.219Z,21.17
2018-04-27T13:24:48.302Z,21.19
2018-04-27T13:25:56.359Z,21.19
2018-04-27T13:27:04.439Z,21.05
2018-04-27T13:28:12.499Z,21.04
2018-04-27T13:29:20.566Z,21.08
2018-04-27T13:30:28.634Z,21.10
2018-04-27T13:31:36.698Z,21.03
2018-04-27T13:32:44.743Z,21.03
2018-04-27T13:33:52.846Z,20.95
2018-04-27T13:35:00.905Z,20.90
2018-04-27T13:36:08.965Z,20.83
2018-04-27T13:37:17.076Z,20.88
2018-04-27T13:38:25.090Z,20.80
2018-04-27T13:39:33.221Z,20.85
2018-04-27T13:40:41.250Z,20.88
2018-04-27T13:41:49.313Z,20.95
2018-04-27T13:42:57.381Z,21.04
2018-04-27T13:44:05.437Z,21.08
2018-04-27T13:45:13.527Z,20.92
2018-04-27T13:46:21.585Z,21.04
2018-04-27T13:47:29.651Z,21.03
2018-04-27T13:48:37.727Z,21.00
2018-04-27T13:49:45.788Z,21.01
2018-04-27T13:50:53.846Z,21.03
2018-04-27T13:52:01.938Z,21.01
2018-04-27T13:53:10.005Z,21.00
2018-04-27T13:54:18.056Z,21.00
2018-04-27T13:55:26.131Z,21.08
2018-04-27T13:56:34.199Z,21.03
2018-04-27T13:57:42.263Z,21.03
2018-04-27T13:58:50.321Z,21.04
2018-04-27T13:59:58.402Z,21.07
2018-04-27T14:01:06.485Z,21.17
2018-04-27T14:02:14.526Z,21.15
2018-04-27T14:03:22.613Z,21.05
2018-04-27T14:04:30.683Z,21.22
2018-04-27T14:05:38.784Z,21.22
2018-04-27T14:06:46.805Z,21.30
2018-04-27T14:07:54.851Z,21.30
2018-04-27T14:09:02.951Z,21.28
2018-04-27T14:10:11.041Z,21.22
2018-04-27T14:11:19.151Z,21.33
2018-04-27T14:12:27.159Z,21.33
2018-04-27T14:13:35.195Z,21.28
2018-04-27T14:14:43.290Z,21.14
2018-04-27T14:15:51.354Z,21.22
2018-04-27T14:16:59.414Z,21.13
2018-04-27T14:18:07.485Z,21.28
2018-04-27T14:19:15.552Z,21.22
2018-04-27T14:20:23.634Z,21.25
2018-04-27T14:21:31.746Z,21.19
2018-04-27T14:22:39.795Z,21.23
2018-04-27T14:23:47.838Z,21.08
2018-04-27T14:24:55.890Z,21.05
2018-04-27T14:26:03.965Z,21.17
2018-04-27T14:27:12.040Z,21.20
2018-04-27T14:28:20.098Z,21.20
2018-04-27T14:29:28.165Z,21.10
2018-04-27T14:30:36.229Z,21.15
2018-04-27T14:31:44.321Z,21.10
2018-04-27T14:32:52.368Z,21.10
2018-04-27T14:34:00.442Z,21.03
2018-04-27T14:35:08.523Z,20.98
2018-04-27T14:36:16.585Z,21.03
2018-04-27T14:37:24.624Z,21.00
2018-04-27T14:38:32.724Z,21.07
2018-04-27T14:39:40.784Z,21.10
2018-04-27T14:40:48.851Z,21.01
2018-04-27T14:41:56.909Z,21.05
2018-04-27T14:43:04.962Z,21.08
2018-04-27T14:44:13.043Z,21.05
2018-04-27T14:45:21.116Z,21.03
2018-04-27T14:46:29.251Z,21.08
2018-04-27T14:47:37.256Z,21.07
2018-04-27T14:48:45.300Z,21.08
2018-04-27T14:49:53.398Z,21.07